createdAt,value
2023-09-23T00:01:44.906Z,20.99
2023-09-23T00:06:50.305Z,21.02
2023-09-23T00:11:52.399Z,20.84
2023-09-23T00:16:54.639Z,20.70
2023-09-23T00:21:57.236Z,20.65
2023-09-23T00:27:00.609Z,20.65
2023-09-23T00:32:03.517Z,20.53
2023-09-23T00:37:05.877Z,20.43
2023-09-23T00:42:11.322Z,20.44
2023-09-23T00:47:16.750Z,20.32
2023-09-23T00:52:19.066Z,20.34
2023-09-23T00:57:22.501Z,20.36
2023-09-23T01:02:24.781Z,20.37
2023-09-23T01:07:28.351Z,20.41
2023-09-23T01:12:31.544Z,20.33
2023-09-23T01:17:33.701Z,20.30
2023-09-23T01:22:37.363Z,20.36
2023-09-23T01:27:40.249Z,20.35
2023-09-23T01:32:51.033Z,20.37
2023-09-23T01:37:53.635Z,20.40
2023-09-23T01:42:56.720Z,20.43
2023-09-23T01:47:58.896Z,20.49
2023-09-23T01:53:01.910Z,20.46
2023-09-23T01:58:04.691Z,20.56
2023-09-23T02:03:07.027Z,20.67
2023-09-23T02:08:09.296Z,20.69
2023-09-23T02:13:11.622Z,20.75
2023-09-23T02:18:15.301Z,20.80
2023-09-23T02:23:18.944Z,20.84
2023-09-23T02:28:21.395Z,20.79
2023-09-23T02:33:27.209Z,20.87
2023-09-23T02:38:29.456Z,20.88
2023-09-23T02:43:31.595Z,20.92
2023-09-23T02:48:36.959Z,20.91
2023-09-23T02:53:39.136Z,20.91
2023-09-23T02:58:41.581Z,20.84
2023-09-23T03:03:45.077Z,20.85
2023-09-23T03:08:49.345Z,20.88
2023-09-23T03:13:53.825Z,20.80
2023-09-23T03:19:01.075Z,20.81
2023-09-23T03:24:03.506Z,20.76
2023-09-23T03:29:07.752Z,20.83
2023-09-23T03:34:14.190Z,20.71
2023-09-23T03:39:18.664Z,20.72
2023-09-23T03:44:20.876Z,20.63
2023-09-23T03:49:23.036Z,20.63
2023-09-23T03:54:25.750Z,20.63
2023-09-23T03:59:27.876Z,20.60
2023-09-23T04:04:29.981Z,20.66
2023-09-23T04:09:33.579Z,20.68
2023-09-23T04:14:35.824Z,20.71
2023-09-23T04:19:37.943Z,20.60
2023-09-23T04:24:40.063Z,20.65
2023-09-23T04:29:42.174Z,20.62
2023-09-23T04:34:44.348Z,20.50
2023-09-23T04:39:46.599Z,20.45
2023-09-23T04:44:49.096Z,20.41
2023-09-23T04:49:51.340Z,20.22
2023-09-23T04:54:54.476Z,20.18
2023-09-23T04:59:59.025Z,20.14
2023-09-23T05:05:01.492Z,20.13
2023-09-23T05:10:05.053Z,20.05
2023-09-23T05:15:11.354Z,20.10
2023-09-23T05:20:16.593Z,20.08
2023-09-23T05:25:19.233Z,20.08
2023-09-23T05:30:23.050Z,20.18
2023-09-23T05:35:25.644Z,20.16
2023-09-23T05:40:28.064Z,20.26
2023-09-23T05:45:31.135Z,20.24
2023-09-23T05:50:33.363Z,20.29
2023-09-23T05:55:35.523Z,20.32
2023-09-23T06:00:37.650Z,20.35
2023-09-23T06:05:40.245Z,20.27
2023-09-23T06:10:42.483Z,20.31
2023-09-23T06:15:44.814Z,20.23
2023-09-23T06:20:47.369Z,20.19
2023-09-23T06:26:02.158Z,20.14
2023-09-23T06:31:07.595Z,19.99
2023-09-23T06:36:09.747Z,19.84
2023-09-23T06:41:11.981Z,19.80
2023-09-23T06:46:14.247Z,19.89
2023-09-23T06:51:16.467Z,19.76
2023-09-23T06:56:18.596Z,19.76
2023-09-23T07:01:22.726Z,19.63
2023-09-23T07:06:24.986Z,19.63
2023-09-23T07:11:27.270Z,19.66
2023-09-23T07:16:29.509Z,19.61
2023-09-23T07:21:32.036Z,19.51
2023-09-23T07:26:34.274Z,19.49
2023-09-23T07:31:36.584Z,19.61
2023-09-23T07:36:38.772Z,19.65
2023-09-23T07:41:40.917Z,19.41
2023-09-23T07:46:43.791Z,19.45
2023-09-23T07:51:45.910Z,19.37
2023-09-23T07:56:48.068Z,19.37
2023-09-23T08:01:50.307Z,19.38
2023-09-23T08:06:52.454Z,19.29
2023-09-23T08:11:54.635Z,19.27
2023-09-23T08:16:57.326Z,19.39
2023-09-23T08:22:00.143Z,19.57
2023-09-23T08:27:04.666Z,19.67
2023-09-23T08:32:07.277Z,19.78
2023-09-23T08:37:09.640Z,19.84
2023-09-23T08:42:11.938Z,19.83
2023-09-23T08:47:14.512Z,20.00
2023-09-23T08:52:20.572Z,20.06
2023-09-23T08:57:23.286Z,20.20
2023-09-23T09:02:27.109Z,19.92
2023-09-23T09:07:37.098Z,20.00
2023-09-23T09:12:39.460Z,20.20
2023-09-23T09:17:42.517Z,20.42
2023-09-23T09:22:46.863Z,20.27
2023-09-23T09:27:49.796Z,20.16
2023-09-23T09:32:54.844Z,20.22
2023-09-23T09:38:15.059Z,20.31
2023-09-23T09:43:22.010Z,20.42
2023-09-23T09:48:29.354Z,20.56
2023-09-23T09:53:31.696Z,20.45
2023-09-23T09:58:42.416Z,20.47
2023-09-23T10:03:47.052Z,20.52
2023-09-23T10:08:50.425Z,20.44
2023-09-23T10:13:52.754Z,20.50
2023-09-23T10:18:56.170Z,20.86
2023-09-23T10:24:03.275Z,21.38
2023-09-23T10:29:06.966Z,22.59
2023-09-23T10:34:11.329Z,24.02
2023-09-23T10:39:17.102Z,25.31
2023-09-23T10:44:24.726Z,25.34
2023-09-23T10:49:27.825Z,24.79
2023-09-23T10:54:30.368Z,24.94
2023-09-23T10:59:33.597Z,25.09
2023-09-23T11:04:35.885Z,23.98
2023-09-23T11:09:37.984Z,23.49
2023-09-23T11:14:44.556Z,23.65
2023-09-23T11:20:00.380Z,24.07
2023-09-23T11:25:02.617Z,22.92
2023-09-23T11:30:06.270Z,23.68
2023-09-23T11:35:08.750Z,24.10
2023-09-23T11:40:13.528Z,24.57
2023-09-23T11:45:15.736Z,24.78
2023-09-23T11:50:18.049Z,25.23
2023-09-23T11:55:20.734Z,24.89
2023-09-23T12:00:22.947Z,24.20
2023-09-23T12:05:31.464Z,23.32
2023-09-23T12:10:34.949Z,22.59
2023-09-23T12:15:37.069Z,22.34
2023-09-23T12:20:39.260Z,22.09
2023-09-23T12:25:41.604Z,21.75
2023-09-23T12:30:43.772Z,21.35
2023-09-23T12:35:46.129Z,20.94
2023-09-23T12:40:48.401Z,20.48
2023-09-23T12:45:51.589Z,20.24
2023-09-23T12:50:53.718Z,20.10
2023-09-23T12:55:55.979Z,19.97
2023-09-23T13:00:58.238Z,19.96
2023-09-23T13:06:01.129Z,19.81
2023-09-23T13:11:03.471Z,19.60
2023-09-23T13:16:05.650Z,19.55
2023-09-23T13:21:08.147Z,19.48
2023-09-23T13:26:10.303Z,19.38
2023-09-23T13:31:12.721Z,19.32
2023-09-23T13:36:14.998Z,19.30
2023-09-23T13:41:17.232Z,19.50
2023-09-23T13:46:19.554Z,19.34
2023-09-23T13:51:22.558Z,19.33
2023-09-23T13:56:25.197Z,19.16
2023-09-23T14:01:27.446Z,18.94
2023-09-23T14:06:34.613Z,18.88
2023-09-23T14:11:37.604Z,18.88
2023-09-23T14:16:39.784Z,18.75
2023-09-23T14:21:42.273Z,18.81
2023-09-23T14:26:45.240Z,18.77
2023-09-23T14:31:47.389Z,18.80
2023-09-23T14:36:49.958Z,18.65
2023-09-23T14:41:54.063Z,18.63
2023-09-23T14:46:56.176Z,18.70
2023-09-23T14:51:58.446Z,18.55
2023-09-23T14:57:00.587Z,18.61
2023-09-23T15:02:04.041Z,18.43
2023-09-23T15:07:07.275Z,18.32
2023-09-23T15:12:10.417Z,18.42
2023-09-23T15:17:14.302Z,18.32
2023-09-23T15:22:16.583Z,18.35
2023-09-23T15:27:18.878Z,18.30
2023-09-23T15:32:21.104Z,18.31
2023-09-23T15:37:23.628Z,18.32
2023-09-23T15:42:29.861Z,18.19
2023-09-23T15:47:32.055Z,18.22
2023-09-23T15:52:34.928Z,18.14
2023-09-23T15:57:37.534Z,18.11
2023-09-23T16:02:39.911Z,18.07
2023-09-23T16:07:42.147Z,18.08
2023-09-23T16:12:44.276Z,18.08
2023-09-23T16:17:46.615Z,18.15
2023-09-23T16:22:49.044Z,18.17
2023-09-23T16:27:51.258Z,18.10
2023-09-23T16:32:56.573Z,17.98
2023-09-23T16:37:58.821Z,18.03
2023-09-23T16:43:01.440Z,18.02
2023-09-23T16:48:03.834Z,17.97
2023-09-23T16:53:08.253Z,17.89
2023-09-23T16:58:10.496Z,17.81
2023-09-23T17:03:12.915Z,17.80
2023-09-23T17:08:15.114Z,17.78
2023-09-23T17:13:17.318Z,17.79
2023-09-23T17:18:19.976Z,17.68
2023-09-23T17:23:23.650Z,17.66
2023-09-23T17:28:25.776Z,17.69
2023-09-23T17:33:28.281Z,17.63
2023-09-23T17:38:33.745Z,17.59
2023-09-23T17:43:36.266Z,17.56
2023-09-23T17:48:38.816Z,17.60
2023-09-23T17:53:41.057Z,17.50
2023-09-23T17:58:44.436Z,17.44
2023-09-23T18:03:47.042Z,17.42
2023-09-23T18:08:49.417Z,17.35
2023-09-23T18:13:51.637Z,17.30
2023-09-23T18:18:53.849Z,17.29
2023-09-23T18:23:56.124Z,17.20
2023-09-23T18:28:58.373Z,17.13
2023-09-23T18:34:00.832Z,17.07
2023-09-23T18:39:03.147Z,16.98
2023-09-23T18:44:05.941Z,16.95
2023-09-23T18:49:08.304Z,16.92
2023-09-23T18:54:10.557Z,16.91
2023-09-23T18:59:12.724Z,16.86
2023-09-23T19:04:16.182Z,16.79
2023-09-23T19:09:19.493Z,16.82
2023-09-23T19:14:22.278Z,16.72
2023-09-23T19:19:24.583Z,16.70
2023-09-23T19:24:26.741Z,16.69
2023-09-23T19:29:29.014Z,16.69
2023-09-23T19:34:31.607Z,16.71
2023-09-23T19:39:38.803Z,16.72
2023-09-23T19:44:41.237Z,16.77
2023-09-23T19:49:43.532Z,16.71
2023-09-23T19:54:45.768Z,16.73
2023-09-23T19:59:47.961Z,16.64
2023-09-23T20:04:50.432Z,16.67
2023-09-23T20:09:52.600Z,16.58
2023-09-23T20:14:54.806Z,16.52
2023-09-23T20:19:56.966Z,16.42
2023-09-23T20:24:59.700Z,16.33
2023-09-23T20:30:06.933Z,16.20
2023-09-23T20:35:14.247Z,16.14
2023-09-23T20:40:17.284Z,16.24
2023-09-23T20:45:19.590Z,16.24
2023-09-23T20:50:22.996Z,16.22
2023-09-23T20:55:25.720Z,16.22
2023-09-23T21:00:27.945Z,16.14
2023-09-23T21:05:30.152Z,16.10
2023-09-23T21:10:32.493Z,16.09
2023-09-23T21:15:34.644Z,16.03
2023-09-23T21:20:38.503Z,16.04
2023-09-23T21:25:40.910Z,15.96
2023-09-23T21:30:43.206Z,15.94
2023-09-23T21:35:45.834Z,15.89
2023-09-23T21:40:48.095Z,15.90
2023-09-23T21:45:52.830Z,15.89
2023-09-23T21:50:56.661Z,15.91
2023-09-23T21:56:00.027Z,15.87
2023-09-23T22:01:02.758Z,15.90
2023-09-23T22:06:08.823Z,15.89
2023-09-23T22:11:10.977Z,15.83
2023-09-23T22:16:13.627Z,15.83
2023-09-23T22:21:15.807Z,15.80
2023-09-23T22:26:17.999Z,15.91
2023-09-23T22:31:27.844Z,15.84
2023-09-23T22:36:30.555Z,15.89
2023-09-23T22:41:32.696Z,15.96
2023-09-23T22:46:36.778Z,15.98
2023-09-23T22:51:39.098Z,15.95
2023-09-23T22:56:41.560Z,15.89
2023-09-23T23:01:45.233Z,15.95
2023-09-23T23:06:48.320Z,15.99
2023-09-23T23:11:50.633Z,16.02
2023-09-23T23:16:52.895Z,16.09
2023-09-23T23:21:55.017Z,16.03
2023-09-23T23:26:58.954Z,16.04
2023-09-23T23:32:01.120Z,16.13
2023-09-23T23:37:03.786Z,16.13
2023-09-23T23:42:06.682Z,16.13
2023-09-23T23:47:09.834Z,16.11
2023-09-23T23:52:11.973Z,16.08
2023-09-23T23:57:17.070Z,16.05
